sensor_id;sensor_type;location;lat;lon;timestamp;pressure;altitude;pressure_sealevel;temperature;humidity
12775;BME280;6451;42.630;23.382;2023-05-20T00:00:27;94693.16;;;17.67;100.00
12775;BME280;6451;42.630;23.382;2023-05-20T00:02:54;94658.91;;;17.46;100.00
12775;BME280;6451;42.630;23.382;2023-05-20T00:05:22;94656.94;;;17.43;100.00
12775;BME280;6451;42.630;23.382;2023-05-20T00:07:49;94671.38;;;17.37;100.00
12775;BME280;6451;42.630;23.382;2023-05-20T00:10:16;94686.00;;;17.51;100.00
12775;BME280;6451;42.630;23.382;2023-05-20T00:12:42;94641.53;;;17.28;100.00
12775;BME280;6451;42.630;23.382;2023-05-20T00:15:11;94687.16;;;17.54;100.00
12775;BME280;6451;42.630;23.382;2023-05-20T00:17:38;94651.28;;;17.22;100.00
12775;BME280;6451;42.630;23.382;2023-05-20T00:20:06;94650.56;;;17.29;100.00
12775;BME280;6451;42.630;23.382;2023-05-20T00:22:33;94691.03;;;17.42;100.00
12775;BME280;6451;42.630;23.382;2023-05-20T00:25:00;94672.50;;;17.29;100.00
12775;BME280;6451;42.630;23.382;2023-05-20T00:27:27;94683.63;;;17.02;100.00
12775;BME280;6451;42.630;23.382;2023-05-20T00:29:54;94689.09;;;16.99;100.00
12775;BME280;6451;42.630;23.382;2023-05-20T00:32:23;94651.00;;;16.86;100.00
12775;BME280;6451;42.630;23.382;2023-05-20T00:34:57;94682.50;;;17.07;100.00
12775;BME280;6451;42.630;23.382;2023-05-20T00:37:25;94676.09;;;16.51;100.00
12775;BME280;6451;42.630;23.382;2023-05-20T00:39:53;94682.81;;;16.57;100.00
12775;BME280;6451;42.630;23.382;2023-05-20T00:42:20;94663.09;;;16.41;100.00
12775;BME280;6451;42.630;23.382;2023-05-20T00:44:47;94673.34;;;16.51;100.00
12775;BME280;6451;42.630;23.382;2023-05-20T00:47:15;94650.78;;;16.65;100.00
12775;BME280;6451;42.630;23.382;2023-05-20T00:49:45;94663.38;;;16.70;100.00
12775;BME280;6451;42.630;23.382;2023-05-20T00:52:12;94650.81;;;16.68;100.00
12775;BME280;6451;42.630;23.382;2023-05-20T00:54:40;94633.91;;;16.59;100.00
12775;BME280;6451;42.630;23.382;2023-05-20T00:57:08;94633.31;;;16.77;100.00
12775;BME280;6451;42.630;23.382;2023-05-20T00:59:36;94636.66;;;17.04;100.00
12775;BME280;6451;42.630;23.382;2023-05-20T01:02:03;94640.19;;;17.04;100.00
12775;BME280;6451;42.630;23.382;2023-05-20T01:04:33;94656.00;;;17.21;100.00
12775;BME280;6451;42.630;23.382;2023-05-20T01:07:02;94649.31;;;17.19;100.00
12775;BME280;6451;42.630;23.382;2023-05-20T01:09:29;94650.91;;;16.76;100.00
12775;BME280;6451;42.630;23.382;2023-05-20T01:12:02;94547.25;;;16.00;100.00
12775;BME280;6451;42.630;23.382;2023-05-20T01:14:36;94617.00;;;16.54;100.00
12775;BME280;6451;42.630;23.382;2023-05-20T01:17:07;94668.72;;;16.59;100.00
12775;BME280;6451;42.630;23.382;2023-05-20T01:19:40;94622.72;;;16.01;100.00
12775;BME280;6451;42.630;23.382;2023-05-20T01:22:11;94677.59;;;16.45;100.00
12775;BME280;6451;42.630;23.382;2023-05-20T01:24:40;94593.91;;;16.10;100.00
12775;BME280;6451;42.630;23.382;2023-05-20T01:27:08;94677.06;;;16.70;100.00
12775;BME280;6451;42.630;23.382;2023-05-20T01:29:36;94652.28;;;16.59;100.00
12775;BME280;6451;42.630;23.382;2023-05-20T01:32:05;94673.56;;;16.35;100.00
12775;BME280;6451;42.630;23.382;2023-05-20T01:34:34;94669.63;;;16.33;100.00
12775;BME280;6451;42.630;23.382;2023-05-20T01:37:03;94652.53;;;16.09;100.00
12775;BME280;6451;42.630;23.382;2023-05-20T01:39:32;94655.63;;;16.04;100.00
12775;BME280;6451;42.630;23.382;2023-05-20T01:42:01;94654.03;;;16.37;100.00
12775;BME280;6451;42.630;23.382;2023-05-20T01:44:29;94658.88;;;16.88;100.00
12775;BME280;6451;42.630;23.382;2023-05-20T01:46:56;94667.63;;;17.04;100.00
12775;BME280;6451;42.630;23.382;2023-05-20T01:49:23;94655.53;;;17.16;100.00
12775;BME280;6451;42.630;23.382;2023-05-20T01:51:50;94572.00;;;16.55;100.00
12775;BME280;6451;42.630;23.382;2023-05-20T01:54:17;94659.22;;;16.86;100.00
12775;BME280;6451;42.630;23.382;2023-05-20T01:56:45;94626.41;;;16.53;100.00
12775;BME280;6451;42.630;23.382;2023-05-20T01:59:13;94653.09;;;16.63;100.00
12775;BME280;6451;42.630;23.382;2023-05-20T02:01:40;94658.31;;;16.72;100.00
12775;BME280;6451;42.630;23.382;2023-05-20T02:04:09;94660.63;;;16.70;100.00
12775;BME280;6451;42.630;23.382;2023-05-20T02:06:36;94658.59;;;16.26;100.00
12775;BME280;6451;42.630;23.382;2023-05-20T02:09:03;94651.53;;;16.25;100.00
12775;BME280;6451;42.630;23.382;2023-05-20T02:11:30;94627.91;;;16.47;100.00
12775;BME280;6451;42.630;23.382;2023-05-20T02:13:57;94640.84;;;16.50;100.00
12775;BME280;6451;42.630;23.382;2023-05-20T02:16:25;94633.16;;;16.25;100.00
12775;BME280;6451;42.630;23.382;2023-05-20T02:18:53;94654.28;;;16.25;100.00
12775;BME280;6451;42.630;23.382;2023-05-20T02:21:23;94659.53;;;16.40;100.00
12775;BME280;6451;42.630;23.382;2023-05-20T02:23:51;94653.84;;;16.19;100.00
12775;BME280;6451;42.630;23.382;2023-05-20T02:26:19;94651.72;;;16.05;100.00
12775;BME280;6451;42.630;23.382;2023-05-20T02:28:47;94650.25;;;16.15;100.00
12775;BME280;6451;42.630;23.382;2023-05-20T02:31:16;94651.03;;;16.16;100.00
12775;BME280;6451;42.630;23.382;2023-05-20T02:33:44;94607.91;;;16.05;100.00
12775;BME280;6451;42.630;23.382;2023-05-20T02:36:11;94637.75;;;16.51;100.00
12775;BME280;6451;42.630;23.382;2023-05-20T02:38:38;94641.22;;;16.11;100.00
12775;BME280;6451;42.630;23.382;2023-05-20T02:41:05;94641.59;;;16.09;100.00
12775;BME280;6451;42.630;23.382;2023-05-20T02:43:33;94641.56;;;16.06;100.00
12775;BME280;6451;42.630;23.382;2023-05-20T02:46:01;94540.06;;;15.54;100.00
12775;BME280;6451;42.630;23.382;2023-05-20T02:48:29;94634.13;;;16.06;100.00
12775;BME280;6451;42.630;23.382;2023-05-20T02:50:57;94636.03;;;16.36;100.00
12775;BME280;6451;42.630;23.382;2023-05-20T02:53:25;94630.94;;;16.34;100.00
12775;BME280;6451;42.630;23.382;2023-05-20T02:55:52;94574.22;;;16.01;100.00
12775;BME280;6451;42.630;23.382;2023-05-20T02:58:19;94644.88;;;16.22;100.00
12775;BME280;6451;42.630;23.382;2023-05-20T03:00:50;94608.81;;;16.17;100.00
12775;BME280;6451;42.630;23.382;2023-05-20T03:03:17;94639.69;;;16.13;100.00
12775;BME280;6451;42.630;23.382;2023-05-20T03:05:45;94652.66;;;16.20;100.00
12775;BME280;6451;42.630;23.382;2023-05-20T03:08:14;94565.53;;;15.92;100.00
12775;BME280;6451;42.630;23.382;2023-05-20T03:10:41;94639.63;;;16.44;100.00
12775;BME280;6451;42.630;23.382;2023-05-20T03:13:08;94654.66;;;16.23;100.00
12775;BME280;6451;42.630;23.382;2023-05-20T03:15:36;94653.47;;;16.24;100.00
12775;BME280;6451;42.630;23.382;2023-05-20T03:18:03;94651.63;;;16.32;100.00
12775;BME280;6451;42.630;23.382;2023-05-20T03:20:30;94615.38;;;16.08;100.00
12775;BME280;6451;42.630;23.382;2023-05-20T03:22:58;94654.44;;;16.39;100.00
12775;BME280;6451;42.630;23.382;2023-05-20T03:25:27;94602.22;;;16.21;100.00
12775;BME280;6451;42.630;23.382;2023-05-20T03:27:55;94615.69;;;16.78;100.00
12775;BME280;6451;42.630;23.382;2023-05-20T03:30:23;94606.66;;;16.74;100.00
12775;BME280;6451;42.630;23.382;2023-05-20T03:32:51;94643.69;;;16.60;100.00
12775;BME280;6451;42.630;23.382;2023-05-20T03:35:17;94626.88;;;16.62;100.00
12775;BME280;6451;42.630;23.382;2023-05-20T03:37:44;94658.28;;;17.12;100.00
12775;BME280;6451;42.630;23.382;2023-05-20T03:40:11;94664.16;;;17.14;100.00
12775;BME280;6451;42.630;23.382;2023-05-20T03:42:40;94675.84;;;16.67;100.00
12775;BME280;6451;42.630;23.382;2023-05-20T03:45:08;94655.06;;;16.25;100.00
12775;BME280;6451;42.630;23.382;2023-05-20T03:47:35;94626.03;;;16.17;100.00
12775;BME280;6451;42.630;23.382;2023-05-20T03:50:02;94680.94;;;16.31;100.00
12775;BME280;6451;42.630;23.382;2023-05-20T03:52:29;94686.69;;;16.19;100.00
12775;BME280;6451;42.630;23.382;2023-05-20T03:54:57;94699.78;;;15.73;100.00
12775;BME280;6451;42.630;23.382;2023-05-20T03:57:24;94666.00;;;15.62;100.00
12775;BME280;6451;42.630;23.382;2023-05-20T03:59:53;94666.22;;;16.09;100.00
12775;BME280;6451;42.630;23.382;2023-05-20T04:02:20;94674.88;;;16.11;100.00
12775;BME280;6451;42.630;23.382;2023-05-20T04:04:48;94689.94;;;15.98;100.00
12775;BME280;6451;42.630;23.382;2023-05-20T04:07:17;94700.94;;;16.02;100.00
12775;BME280;6451;42.630;23.382;2023-05-20T04:09:44;94694.88;;;16.53;100.00
12775;BME280;6451;42.630;23.382;2023-05-20T04:12:11;94649.72;;;16.36;100.00
12775;BME280;6451;42.630;23.382;2023-05-20T04:14:39;94695.66;;;16.87;100.00
12775;BME280;6451;42.630;23.382;2023-05-20T04:17:08;94661.91;;;16.42;100.00
12775;BME280;6451;42.630;23.382;2023-05-20T04:19:35;94680.31;;;16.42;100.00
12775;BME280;6451;42.630;23.382;2023-05-20T04:22:03;94671.47;;;16.59;100.00
12775;BME280;6451;42.630;23.382;2023-05-20T04:24:30;94665.34;;;17.13;100.00
12775;BME280;6451;42.630;23.382;2023-05-20T04:26:56;94686.03;;;17.62;100.00
12775;BME280;6451;42.630;23.382;2023-05-20T04:29:24;94689.53;;;17.56;100.00
12775;BME280;6451;42.630;23.382;2023-05-20T04:31:51;94683.63;;;17.50;100.00
12775;BME280;6451;42.630;23.382;2023-05-20T04:34:19;94668.56;;;17.81;100.00
12775;BME280;6451;42.630;23.382;2023-05-20T04:36:52;94674.84;;;17.85;100.00
12775;BME280;6451;42.630;23.382;2023-05-20T04:39:19;94620.19;;;17.62;100.00
12775;BME280;6451;42.630;23.382;2023-05-20T04:41:46;94698.19;;;18.27;100.00
12775;BME280;6451;42.630;23.382;2023-05-20T04:44:13;94690.44;;;18.61;100.00
12775;BME280;6451;42.630;23.382;2023-05-20T04:46:40;94650.06;;;18.79;100.00
12775;BME280;6451;42.630;23.382;2023-05-20T04:49:09;94700.41;;;19.30;100.00
12775;BME280;6451;42.630;23.382;2023-05-20T04:51:37;94685.03;;;18.82;100.00
12775;BME280;6451;42.630;23.382;2023-05-20T04:54:04;94707.09;;;19.25;100.00
12775;BME280;6451;42.630;23.382;2023-05-20T04:56:31;94680.75;;;19.42;100.00
12775;BME280;6451;42.630;23.382;2023-05-20T04:58:59;94699.19;;;19.84;100.00
12775;BME280;6451;42.630;23.382;2023-05-20T05:01:26;94706.31;;;19.25;100.00
12775;BME280;6451;42.630;23.382;2023-05-20T05:03:54;94706.31;;;19.57;100.00
12775;BME280;6451;42.630;23.382;2023-05-20T05:06:21;94675.25;;;19.28;100.00
12775;BME280;6451;42.630;23.382;2023-05-20T05:08:49;94695.63;;;19.91;100.00
12775;BME280;6451;42.630;23.382;2023-05-20T05:11:16;94681.91;;;19.69;100.00
12775;BME280;6451;42.630;23.382;2023-05-20T05:13:43;94693.63;;;20.06;99.79
12775;BME280;6451;42.630;23.382;2023-05-20T05:16:10;94708.91;;;20.35;97.44
12775;BME280;6451;42.630;23.382;2023-05-20T05:18:37;94692.91;;;19.52;100.00
12775;BME280;6451;42.630;23.382;2023-05-20T05:21:05;94685.34;;;20.13;99.27
12775;BME280;6451;42.630;23.382;2023-05-20T05:23:32;94702.19;;;20.36;97.35
12775;BME280;6451;42.630;23.382;2023-05-20T05:26:00;94706.59;;;20.09;100.00
12775;BME280;6451;42.630;23.382;2023-05-20T05:28:28;94703.47;;;20.10;100.00
12775;BME280;6451;42.630;23.382;2023-05-20T05:30:55;94689.50;;;20.64;97.29
12775;BME280;6451;42.630;23.382;2023-05-20T05:33:22;94665.50;;;21.16;94.20
12775;BME280;6451;42.630;23.382;2023-05-20T05:35:50;94666.06;;;21.49;92.56
12775;BME280;6451;42.630;23.382;2023-05-20T05:38:16;94694.16;;;20.74;98.03
12775;BME280;6451;42.630;23.382;2023-05-20T05:40:43;94674.69;;;20.99;97.81
12775;BME280;6451;42.630;23.382;2023-05-20T05:43:12;94661.09;;;21.26;96.32
12775;BME280;6451;42.630;23.382;2023-05-20T05:45:40;94692.66;;;21.73;94.19
12775;BME280;6451;42.630;23.382;2023-05-20T05:48:08;94675.66;;;21.33;97.87
12775;BME280;6451;42.630;23.382;2023-05-20T05:50:35;94678.00;;;21.80;95.94
12775;BME280;6451;42.630;23.382;2023-05-20T05:53:02;94695.47;;;22.45;93.36
12775;BME280;6451;42.630;23.382;2023-05-20T05:55:30;94691.78;;;22.25;92.14
12775;BME280;6451;42.630;23.382;2023-05-20T05:57:57;94688.97;;;21.87;96.81
12775;BME280;6451;42.630;23.382;2023-05-20T06:00:26;94676.91;;;22.11;97.07
12775;BME280;6451;42.630;23.382;2023-05-20T06:02:53;94675.38;;;22.71;91.53
12775;BME280;6451;42.630;23.382;2023-05-20T06:05:21;94681.38;;;22.66;89.20
12775;BME280;6451;42.630;23.382;2023-05-20T06:07:48;94678.09;;;22.75;85.24
12775;BME280;6451;42.630;23.382;2023-05-20T06:10:15;94672.34;;;22.62;84.16
12775;BME280;6451;42.630;23.382;2023-05-20T06:12:42;94671.75;;;22.78;80.46
12775;BME280;6451;42.630;23.382;2023-05-20T06:15:09;94672.28;;;22.96;79.19
12775;BME280;6451;42.630;23.382;2023-05-20T06:17:38;94670.81;;;23.15;78.71
12775;BME280;6451;42.630;23.382;2023-05-20T06:20:06;94667.78;;;23.33;78.65
12775;BME280;6451;42.630;23.382;2023-05-20T06:22:33;94668.56;;;23.34;79.25
12775;BME280;6451;42.630;23.382;2023-05-20T06:25:01;94618.75;;;22.80;74.99
12775;BME280;6451;42.630;23.382;2023-05-20T06:27:27;94674.19;;;22.72;74.98
12775;BME280;6451;42.630;23.382;2023-05-20T06:29:54;94677.22;;;22.82;74.55
12775;BME280;6451;42.630;23.382;2023-05-20T06:32:21;94651.75;;;23.21;74.34
12775;BME280;6451;42.630;23.382;2023-05-20T06:34:50;94657.38;;;23.41;72.64
12775;BME280;6451;42.630;23.382;2023-05-20T06:37:17;94601.47;;;22.99;73.42
12775;BME280;6451;42.630;23.382;2023-05-20T06:39:44;94641.63;;;23.11;72.72
12775;BME280;6451;42.630;23.382;2023-05-20T06:42:12;94653.06;;;23.13;72.18
12775;BME280;6451;42.630;23.382;2023-05-20T06:44:39;94634.38;;;22.93;72.77
12775;BME280;6451;42.630;23.382;2023-05-20T06:47:05;94649.28;;;23.26;72.58
12775;BME280;6451;42.630;23.382;2023-05-20T06:49:33;94645.91;;;22.88;73.77
12775;BME280;6451;42.630;23.382;2023-05-20T06:52:02;94640.69;;;23.44;73.84
12775;BME280;6451;42.630;23.382;2023-05-20T06:54:29;94651.41;;;23.15;73.28
12775;BME280;6451;42.630;23.382;2023-05-20T06:56:59;94653.25;;;23.25;72.22
12775;BME280;6451;42.630;23.382;2023-05-20T06:59:26;94632.94;;;24.02;70.66
12775;BME280;6451;42.630;23.382;2023-05-20T07:01:54;94654.91;;;22.96;71.91
12775;BME280;6451;42.630;23.382;2023-05-20T07:04:22;94560.84;;;22.65;70.08
12775;BME280;6451;42.630;23.382;2023-05-20T07:06:49;94658.28;;;23.81;69.31
12775;BME280;6451;42.630;23.382;2023-05-20T07:09:17;94652.28;;;23.63;69.90
12775;BME280;6451;42.630;23.382;2023-05-20T07:11:44;94638.50;;;23.55;70.23
12775;BME280;6451;42.630;23.382;2023-05-20T07:14:11;94650.56;;;24.12;69.39
12775;BME280;6451;42.630;23.382;2023-05-20T07:16:38;94652.38;;;23.79;70.28
12775;BME280;6451;42.630;23.382;2023-05-20T07:19:05;94618.69;;;23.80;68.67
12775;BME280;6451;42.630;23.382;2023-05-20T07:21:32;94635.00;;;24.38;68.38
12775;BME280;6451;42.630;23.382;2023-05-20T07:23:59;94642.06;;;24.43;68.72
12775;BME280;6451;42.630;23.382;2023-05-20T07:26:27;94644.84;;;24.79;67.89
12775;BME280;6451;42.630;23.382;2023-05-20T07:28:58;94639.63;;;24.25;66.87
12775;BME280;6451;42.630;23.382;2023-05-20T07:31:24;94618.72;;;24.20;65.83
12775;BME280;6451;42.630;23.382;2023-05-20T07:33:51;94621.06;;;24.61;64.92
12775;BME280;6451;42.630;23.382;2023-05-20T07:36:18;94639.25;;;24.03;67.45
12775;BME280;6451;42.630;23.382;2023-05-20T07:38:45;94647.03;;;24.31;65.37
12775;BME280;6451;42.630;23.382;2023-05-20T07:41:12;94642.59;;;24.14;65.56
12775;BME280;6451;42.630;23.382;2023-05-20T07:43:40;94655.78;;;24.50;64.95
12775;BME280;6451;42.630;23.382;2023-05-20T07:46:07;94650.19;;;24.30;63.28
12775;BME280;6451;42.630;23.382;2023-05-20T07:48:34;94640.31;;;24.29;65.75
12775;BME280;6451;42.630;23.382;2023-05-20T07:51:01;94647.66;;;24.19;64.70
12775;BME280;6451;42.630;23.382;2023-05-20T07:53:29;94643.09;;;24.29;64.06
12775;BME280;6451;42.630;23.382;2023-05-20T07:55:56;94642.38;;;24.64;63.65
12775;BME280;6451;42.630;23.382;2023-05-20T07:58:23;94643.16;;;24.65;65.45
12775;BME280;6451;42.630;23.382;2023-05-20T08:00:51;94637.19;;;24.66;65.13
12775;BME280;6451;42.630;23.382;2023-05-20T08:03:18;94622.97;;;24.64;62.71
12775;BME280;6451;42.630;23.382;2023-05-20T08:05:46;94644.75;;;24.82;63.73
12775;BME280;6451;42.630;23.382;2023-05-20T08:08:14;94640.81;;;24.63;65.50
12775;BME280;6451;42.630;23.382;2023-05-20T08:10:41;94620.34;;;24.37;65.70
12775;BME280;6451;42.630;23.382;2023-05-20T08:13:08;94636.00;;;24.48;65.15
12775;BME280;6451;42.630;23.382;2023-05-20T08:15:35;94629.47;;;24.38;67.12
12775;BME280;6451;42.630;23.382;2023-05-20T08:18:04;94643.56;;;24.47;63.90
12775;BME280;6451;42.630;23.382;2023-05-20T08:20:31;94633.69;;;24.23;65.04
12775;BME280;6451;42.630;23.382;2023-05-20T08:22:59;94609.31;;;24.14;65.41
12775;BME280;6451;42.630;23.382;2023-05-20T08:25:26;94636.22;;;24.57;66.50
12775;BME280;6451;42.630;23.382;2023-05-20T08:27:54;94633.03;;;24.38;66.94
12775;BME280;6451;42.630;23.382;2023-05-20T08:30:21;94636.66;;;24.35;62.44
12775;BME280;6451;42.630;23.382;2023-05-20T08:32:48;94621.47;;;24.20;62.87
12775;BME280;6451;42.630;23.382;2023-05-20T08:35:16;94626.94;;;24.63;62.34
12775;BME280;6451;42.630;23.382;2023-05-20T08:37:43;94627.16;;;24.53;62.96
12775;BME280;6451;42.630;23.382;2023-05-20T08:40:12;94626.03;;;24.70;62.24
12775;BME280;6451;42.630;23.382;2023-05-20T08:42:40;94618.13;;;24.29;61.12
12775;BME280;6451;42.630;23.382;2023-05-20T08:45:10;94627.59;;;24.87;62.65
12775;BME280;6451;42.630;23.382;2023-05-20T08:47:40;94630.22;;;24.94;61.83
12775;BME280;6451;42.630;23.382;2023-05-20T08:50:10;94625.66;;;24.68;61.18
12775;BME280;6451;42.630;23.382;2023-05-20T08:52:42;94631.34;;;24.61;62.42
12775;BME280;6451;42.630;23.382;2023-05-20T08:55:24;94634.00;;;24.84;60.72
12775;BME280;6451;42.630;23.382;2023-05-20T08:57:54;94575.19;;;24.73;62.60
12775;BME280;6451;42.630;23.382;2023-05-20T09:00:25;94634.78;;;25.21;61.37
12775;BME280;6451;42.630;23.382;2023-05-20T09:02:53;94623.09;;;24.77;61.41
12775;BME280;6451;42.630;23.382;2023-05-20T09:05:23;94625.81;;;25.13;61.07
12775;BME280;6451;42.630;23.382;2023-05-20T09:08:03;94616.81;;;25.09;60.90
12775;BME280;6451;42.630;23.382;2023-05-20T09:10:31;94603.81;;;24.70;62.45
12775;BME280;6451;42.630;23.382;2023-05-20T09:13:06;94603.06;;;24.50;59.63
12775;BME280;6451;42.630;23.382;2023-05-20T09:15:37;94586.91;;;24.45;59.98
12775;BME280;6451;42.630;23.382;2023-05-20T09:18:06;94602.72;;;25.00;60.18
12775;BME280;6451;42.630;23.382;2023-05-20T09:20:34;94597.34;;;24.93;60.98
12775;BME280;6451;42.630;23.382;2023-05-20T09:23:05;94436.69;;;23.94;60.29
12775;BME280;6451;42.630;23.382;2023-05-20T09:25:32;94601.72;;;25.10;60.59
12775;BME280;6451;42.630;23.382;2023-05-20T09:27:59;94608.66;;;24.66;60.22
12775;BME280;6451;42.630;23.382;2023-05-20T09:30:26;94598.44;;;25.15;59.17
12775;BME280;6451;42.630;23.382;2023-05-20T09:32:54;94597.81;;;25.40;59.54
12775;BME280;6451;42.630;23.382;2023-05-20T09:35:21;94584.59;;;24.95;58.67
12775;BME280;6451;42.630;23.382;2023-05-20T09:37:51;94590.81;;;24.83;59.30
12775;BME280;6451;42.630;23.382;2023-05-20T09:40:23;94582.94;;;24.98;60.40
12775;BME280;6451;42.630;23.382;2023-05-20T09:42:53;94584.78;;;25.21;61.58
12775;BME280;6451;42.630;23.382;2023-05-20T09:45:20;94575.78;;;25.17;57.62
12775;BME280;6451;42.630;23.382;2023-05-20T09:47:49;94583.03;;;25.27;56.57
12775;BME280;6451;42.630;23.382;2023-05-20T09:50:19;94572.91;;;25.04;56.50
12775;BME280;6451;42.630;23.382;2023-05-20T09:52:50;94566.47;;;25.40;56.23
12775;BME280;6451;42.630;23.382;2023-05-20T09:55:19;94568.59;;;24.67;56.96
12775;BME280;6451;42.630;23.382;2023-05-20T09:57:47;94570.53;;;24.86;57.98
12775;BME280;6451;42.630;23.382;2023-05-20T10:00:15;94564.25;;;24.82;59.88
12775;BME280;6451;42.630;23.382;2023-05-20T10:02:44;94569.56;;;24.77;60.19
12775;BME280;6451;42.630;23.382;2023-05-20T10:05:19;94553.34;;;25.40;60.61
12775;BME280;6451;42.630;23.382;2023-05-20T10:08:02;94557.44;;;25.81;58.31
12775;BME280;6451;42.630;23.382;2023-05-20T10:10:41;94564.84;;;25.10;57.76
12775;BME280;6451;42.630;23.382;2023-05-20T10:13:18;94568.38;;;25.27;56.77
12775;BME280;6451;42.630;23.382;2023-05-20T10:15:54;94542.81;;;25.48;56.69
12775;BME280;6451;42.630;23.382;2023-05-20T10:18:41;94529.56;;;24.90;55.67
12775;BME280;6451;42.630;23.382;2023-05-20T10:21:14;94534.81;;;25.50;56.40
12775;BME280;6451;42.630;23.382;2023-05-20T10:23:42;94534.28;;;25.10;54.93
12775;BME280;6451;42.630;23.382;2023-05-20T10:26:10;94489.66;;;25.17;54.72
12775;BME280;6451;42.630;23.382;2023-05-20T10:28:39;94488.97;;;24.96;54.25
12775;BME280;6451;42.630;23.382;2023-05-20T10:31:17;94524.97;;;25.91;54.58
12775;BME280;6451;42.630;23.382;2023-05-20T10:33:45;94517.91;;;25.44;52.74
12775;BME280;6451;42.630;23.382;2023-05-20T10:36:22;94537.56;;;25.21;53.02
12775;BME280;6451;42.630;23.382;2023-05-20T10:38:54;94520.19;;;25.33;51.00
12775;BME280;6451;42.630;23.382;2023-05-20T10:41:23;94517.41;;;25.33;52.81
12775;BME280;6451;42.630;23.382;2023-05-20T10:44:02;94515.06;;;25.61;53.62
12775;BME280;6451;42.630;23.382;2023-05-20T10:46:31;94507.53;;;25.90;53.99
12775;BME280;6451;42.630;23.382;2023-05-20T10:49:00;94506.16;;;25.24;52.91
12775;BME280;6451;42.630;23.382;2023-05-20T10:51:29;94431.25;;;25.20;50.87
12775;BME280;6451;42.630;23.382;2023-05-20T10:53:57;94487.06;;;25.84;52.01
12775;BME280;6451;42.630;23.382;2023-05-20T10:56:25;94514.72;;;24.97;52.16
12775;BME280;6451;42.630;23.382;2023-05-20T10:58:53;94503.72;;;25.55;51.67
12775;BME280;6451;42.630;23.382;2023-05-20T11:01:24;94499.38;;;25.25;52.00
12775;BME280;6451;42.630;23.382;2023-05-20T11:03:53;94497.88;;;25.66;51.58
12775;BME280;6451;42.630;23.382;2023-05-20T11:06:25;94497.81;;;25.53;51.26
12775;BME280;6451;42.630;23.382;2023-05-20T11:08:53;94493.31;;;26.01;51.90
12775;BME280;6451;42.630;23.382;2023-05-20T11:11:21;94495.75;;;25.86;51.30
12775;BME280;6451;42.630;23.382;2023-05-20T11:13:49;94482.56;;;25.45;49.88
12775;BME280;6451;42.630;23.382;2023-05-20T11:16:17;94491.84;;;25.55;49.81
12775;BME280;6451;42.630;23.382;2023-05-20T11:18:48;94497.50;;;25.80;49.94
12775;BME280;6451;42.630;23.382;2023-05-20T11:21:17;94482.13;;;25.75;50.19
12775;BME280;6451;42.630;23.382;2023-05-20T11:23:44;94489.56;;;26.08;50.80
12775;BME280;6451;42.630;23.382;2023-05-20T11:26:11;94476.13;;;26.31;50.77
12775;BME280;6451;42.630;23.382;2023-05-20T11:28:38;94493.91;;;26.21;50.21
12775;BME280;6451;42.630;23.382;2023-05-20T11:31:05;94498.56;;;26.12;49.91
12775;BME280;6451;42.630;23.382;2023-05-20T11:33:32;94486.78;;;26.08;50.36
12775;BME280;6451;42.630;23.382;2023-05-20T11:36:01;94478.66;;;26.13;49.84
12775;BME280;6451;42.630;23.382;2023-05-20T11:38:28;94466.28;;;26.14;51.19
12775;BME280;6451;42.630;23.382;2023-05-20T11:40:56;94478.16;;;26.56;50.33
12775;BME280;6451;42.630;23.382;2023-05-20T11:43:23;94458.63;;;26.82;50.17
12775;BME280;6451;42.630;23.382;2023-05-20T11:45:52;94462.88;;;26.23;51.71
12775;BME280;6451;42.630;23.382;2023-05-20T11:48:20;94462.88;;;25.39;52.20
12775;BME280;6451;42.630;23.382;2023-05-20T11:50:47;94471.69;;;25.21;53.41
12775;BME280;6451;42.630;23.382;2023-05-20T11:53:17;94453.84;;;25.35;53.40
12775;BME280;6451;42.630;23.382;2023-05-20T11:55:45;94461.16;;;25.29;53.43
12775;BME280;6451;42.630;23.382;2023-05-20T11:58:15;94452.34;;;25.47;53.01
12775;BME280;6451;42.630;23.382;2023-05-20T12:00:42;94454.28;;;25.92;51.67
12775;BME280;6451;42.630;23.382;2023-05-20T12:03:09;94455.72;;;25.67;53.20
12775;BME280;6451;42.630;23.382;2023-05-20T12:05:36;94458.09;;;25.11;54.27
12775;BME280;6451;42.630;23.382;2023-05-20T12:08:04;94443.38;;;24.49;55.29
12775;BME280;6451;42.630;23.382;2023-05-20T12:10:34;94302.09;;;24.09;54.62
12775;BME280;6451;42.630;23.382;2023-05-20T12:13:01;94442.78;;;24.21;56.62
12775;BME280;6451;42.630;23.382;2023-05-20T12:15:29;94444.75;;;24.40;57.63
12775;BME280;6451;42.630;23.382;2023-05-20T12:17:56;94450.25;;;24.08;57.34
12775;BME280;6451;42.630;23.382;2023-05-20T12:20:23;94475.41;;;23.97;58.06
12775;BME280;6451;42.630;23.382;2023-05-20T12:22:51;94493.44;;;23.46;59.68
12775;BME280;6451;42.630;23.382;2023-05-20T12:25:18;94481.53;;;22.59;60.27
12775;BME280;6451;42.630;23.382;2023-05-20T12:27:47;94492.63;;;22.32;62.18
12775;BME280;6451;42.630;23.382;2023-05-20T12:30:16;94510.59;;;21.86;66.00
12775;BME280;6451;42.630;23.382;2023-05-20T12:32:43;94488.06;;;21.87;68.75
12775;BME280;6451;42.630;23.382;2023-05-20T12:35:11;94511.31;;;21.59;70.69
12775;BME280;6451;42.630;23.382;2023-05-20T12:37:38;94517.31;;;21.51;73.10
12775;BME280;6451;42.630;23.382;2023-05-20T12:40:07;94506.09;;;21.31;73.73
12775;BME280;6451;42.630;23.382;2023-05-20T12:42:35;94511.97;;;21.71;73.62
12775;BME280;6451;42.630;23.382;2023-05-20T12:45:05;94516.03;;;21.59;74.42
12775;BME280;6451;42.630;23.382;2023-05-20T12:47:32;94496.97;;;21.72;71.41
12775;BME280;6451;42.630;23.382;2023-05-20T12:50:00;94482.75;;;21.70;71.04
12775;BME280;6451;42.630;23.382;2023-05-20T12:52:27;94501.81;;;22.25;71.13
12775;BME280;6451;42.630;23.382;2023-05-20T12:54:55;94493.81;;;22.81;70.03
12775;BME280;6451;42.630;23.382;2023-05-20T12:57:23;94490.16;;;23.11;67.48
12775;BME280;6451;42.630;23.382;2023-05-20T12:59:50;94488.00;;;23.42;65.43